sensor_id;sensor_type;location;lat;lon;timestamp;P1;durP1;ratioP1;P2;durP2;ratioP2
19414;SDS011;9843;48.882;12.592;2023-04-24T00:00:40;6.10;;;4.53;;
19414;SDS011;9843;48.882;12.592;2023-04-24T00:03:10;5.43;;;4.93;;
19414;SDS011;9843;48.882;12.592;2023-04-24T00:05:37;4.47;;;4.00;;
19414;SDS011;9843;48.882;12.592;2023-04-24T00:08:06;4.83;;;4.13;;
19414;SDS011;9843;48.882;12.592;2023-04-24T00:10:33;4.77;;;4.37;;
19414;SDS011;9843;48.882;12.592;2023-04-24T00:13:01;4.50;;;4.10;;
19414;SDS011;9843;48.882;12.592;2023-04-24T00:15:28;3.77;;;3.47;;
19414;SDS011;9843;48.882;12.592;2023-04-24T00:17:56;4.40;;;3.77;;
19414;SDS011;9843;48.882;12.592;2023-04-24T00:20:23;4.17;;;3.87;;
19414;SDS011;9843;48.882;12.592;2023-04-24T00:22:50;5.47;;;4.27;;
19414;SDS011;9843;48.882;12.592;2023-04-24T00:25:17;6.83;;;5.13;;
19414;SDS011;9843;48.882;12.592;2023-04-24T00:27:44;4.00;;;3.70;;
19414;SDS011;9843;48.882;12.592;2023-04-24T00:30:12;5.67;;;3.93;;
19414;SDS011;9843;48.882;12.592;2023-04-24T00:32:39;5.97;;;4.37;;
19414;SDS011;9843;48.882;12.592;2023-04-24T00:35:07;5.67;;;4.23;;
19414;SDS011;9843;48.882;12.592;2023-04-24T00:37:34;4.77;;;3.73;;
19414;SDS011;9843;48.882;12.592;2023-04-24T00:40:01;5.67;;;4.27;;
19414;SDS011;9843;48.882;12.592;2023-04-24T00:42:28;5.87;;;4.03;;
19414;SDS011;9843;48.882;12.592;2023-04-24T00:44:55;4.40;;;4.00;;
19414;SDS011;9843;48.882;12.592;2023-04-24T00:47:24;9.87;;;4.00;;
19414;SDS011;9843;48.882;12.592;2023-04-24T00:49:52;9.43;;;4.20;;
19414;SDS011;9843;48.882;12.592;2023-04-24T00:52:19;5.83;;;4.47;;
19414;SDS011;9843;48.882;12.592;2023-04-24T00:54:49;7.03;;;4.73;;
19414;SDS011;9843;48.882;12.592;2023-04-24T00:57:16;5.47;;;5.07;;
19414;SDS011;9843;48.882;12.592;2023-04-24T00:59:43;6.37;;;5.30;;
19414;SDS011;9843;48.882;12.592;2023-04-24T01:02:10;5.43;;;4.53;;
19414;SDS011;9843;48.882;12.592;2023-04-24T01:04:39;5.10;;;4.37;;
19414;SDS011;9843;48.882;12.592;2023-04-24T01:07:06;5.07;;;4.57;;
19414;SDS011;9843;48.882;12.592;2023-04-24T01:09:35;6.43;;;5.57;;
19414;SDS011;9843;48.882;12.592;2023-04-24T01:12:02;5.00;;;4.33;;
19414;SDS011;9843;48.882;12.592;2023-04-24T01:14:30;8.50;;;7.63;;
19414;SDS011;9843;48.882;12.592;2023-04-24T01:16:57;6.23;;;5.37;;
19414;SDS011;9843;48.882;12.592;2023-04-24T01:19:25;8.93;;;5.40;;
19414;SDS011;9843;48.882;12.592;2023-04-24T01:21:53;6.83;;;5.10;;
19414;SDS011;9843;48.882;12.592;2023-04-24T01:24:25;5.07;;;4.63;;
19414;SDS011;9843;48.882;12.592;2023-04-24T01:26:52;6.67;;;6.07;;
19414;SDS011;9843;48.882;12.592;2023-04-24T01:29:20;8.43;;;5.57;;
19414;SDS011;9843;48.882;12.592;2023-04-24T01:31:47;12.23;;;6.30;;
19414;SDS011;9843;48.882;12.592;2023-04-24T01:34:14;7.53;;;5.90;;
19414;SDS011;9843;48.882;12.592;2023-04-24T01:36:42;11.17;;;6.70;;
19414;SDS011;9843;48.882;12.592;2023-04-24T01:39:09;6.23;;;5.63;;
19414;SDS011;9843;48.882;12.592;2023-04-24T01:41:38;6.20;;;5.40;;
19414;SDS011;9843;48.882;12.592;2023-04-24T01:44:05;11.80;;;6.73;;
19414;SDS011;9843;48.882;12.592;2023-04-24T01:46:32;10.00;;;6.50;;
19414;SDS011;9843;48.882;12.592;2023-04-24T01:49:00;7.67;;;5.67;;
19414;SDS011;9843;48.882;12.592;2023-04-24T01:51:28;9.97;;;6.30;;
19414;SDS011;9843;48.882;12.592;2023-04-24T01:53:55;6.47;;;5.97;;
19414;SDS011;9843;48.882;12.592;2023-04-24T01:56:22;5.80;;;5.30;;
19414;SDS011;9843;48.882;12.592;2023-04-24T01:58:50;7.97;;;6.23;;
19414;SDS011;9843;48.882;12.592;2023-04-24T02:01:19;7.23;;;6.30;;
19414;SDS011;9843;48.882;12.592;2023-04-24T02:03:46;6.83;;;6.13;;
19414;SDS011;9843;48.882;12.592;2023-04-24T02:06:13;6.40;;;5.53;;
19414;SDS011;9843;48.882;12.592;2023-04-24T02:08:40;6.60;;;5.67;;
19414;SDS011;9843;48.882;12.592;2023-04-24T02:11:08;10.47;;;6.60;;
19414;SDS011;9843;48.882;12.592;2023-04-24T02:13:35;6.03;;;5.10;;
19414;SDS011;9843;48.882;12.592;2023-04-24T02:16:04;7.00;;;6.30;;
19414;SDS011;9843;48.882;12.592;2023-04-24T02:18:31;6.67;;;5.97;;
19414;SDS011;9843;48.882;12.592;2023-04-24T02:20:58;6.23;;;5.67;;
19414;SDS011;9843;48.882;12.592;2023-04-24T02:23:25;6.60;;;5.80;;
19414;SDS011;9843;48.882;12.592;2023-04-24T02:25:52;6.50;;;5.97;;
19414;SDS011;9843;48.882;12.592;2023-04-24T02:28:19;9.27;;;5.63;;
19414;SDS011;9843;48.882;12.592;2023-04-24T02:30:46;11.03;;;6.83;;
19414;SDS011;9843;48.882;12.592;2023-04-24T02:33:14;7.47;;;5.93;;
19414;SDS011;9843;48.882;12.592;2023-04-24T02:35:41;7.80;;;5.93;;
19414;SDS011;9843;48.882;12.592;2023-04-24T02:38:08;9.63;;;6.00;;
19414;SDS011;9843;48.882;12.592;2023-04-24T02:40:35;6.00;;;5.40;;
19414;SDS011;9843;48.882;12.592;2023-04-24T02:43:02;9.70;;;6.33;;
19414;SDS011;9843;48.882;12.592;2023-04-24T02:45:30;7.73;;;7.03;;
19414;SDS011;9843;48.882;12.592;2023-04-24T02:47:59;9.43;;;6.87;;
19414;SDS011;9843;48.882;12.592;2023-04-24T02:50:27;6.50;;;5.67;;
19414;SDS011;9843;48.882;12.592;2023-04-24T02:52:54;7.63;;;6.70;;
19414;SDS011;9843;48.882;12.592;2023-04-24T02:55:21;9.00;;;7.20;;
19414;SDS011;9843;48.882;12.592;2023-04-24T02:57:48;6.17;;;5.60;;
19414;SDS011;9843;48.882;12.592;2023-04-24T03:00:15;10.33;;;7.67;;
19414;SDS011;9843;48.882;12.592;2023-04-24T03:02:42;10.07;;;6.30;;
19414;SDS011;9843;48.882;12.592;2023-04-24T03:05:10;13.00;;;8.07;;
19414;SDS011;9843;48.882;12.592;2023-04-24T03:07:38;6.07;;;4.63;;
19414;SDS011;9843;48.882;12.592;2023-04-24T03:10:06;8.37;;;5.93;;
19414;SDS011;9843;48.882;12.592;2023-04-24T03:12:33;6.87;;;6.03;;
19414;SDS011;9843;48.882;12.592;2023-04-24T03:15:00;7.50;;;6.00;;
19414;SDS011;9843;48.882;12.592;2023-04-24T03:17:27;6.03;;;5.23;;
19414;SDS011;9843;48.882;12.592;2023-04-24T03:19:54;6.07;;;5.47;;
19414;SDS011;9843;48.882;12.592;2023-04-24T03:22:21;6.70;;;5.20;;
19414;SDS011;9843;48.882;12.592;2023-04-24T03:24:50;7.30;;;5.73;;
19414;SDS011;9843;48.882;12.592;2023-04-24T03:27:17;7.13;;;5.50;;
19414;SDS011;9843;48.882;12.592;2023-04-24T03:29:44;7.27;;;6.57;;
19414;SDS011;9843;48.882;12.592;2023-04-24T03:32:11;7.53;;;5.97;;
19414;SDS011;9843;48.882;12.592;2023-04-24T03:34:38;6.43;;;5.83;;
19414;SDS011;9843;48.882;12.592;2023-04-24T03:37:05;8.67;;;5.53;;
19414;SDS011;9843;48.882;12.592;2023-04-24T03:39:32;6.20;;;5.60;;
19414;SDS011;9843;48.882;12.592;2023-04-24T03:42:00;6.10;;;5.50;;
19414;SDS011;9843;48.882;12.592;2023-04-24T03:44:28;7.57;;;5.73;;
19414;SDS011;9843;48.882;12.592;2023-04-24T03:46:55;8.27;;;5.87;;
19414;SDS011;9843;48.882;12.592;2023-04-24T03:49:22;6.03;;;5.43;;
19414;SDS011;9843;48.882;12.592;2023-04-24T03:51:49;19.53;;;9.13;;
19414;SDS011;9843;48.882;12.592;2023-04-24T03:54:17;6.17;;;5.43;;
19414;SDS011;9843;48.882;12.592;2023-04-24T03:56:44;5.43;;;4.93;;
19414;SDS011;9843;48.882;12.592;2023-04-24T03:59:12;10.93;;;6.23;;
19414;SDS011;9843;48.882;12.592;2023-04-24T04:01:39;5.13;;;4.60;;
19414;SDS011;9843;48.882;12.592;2023-04-24T04:04:06;4.43;;;4.13;;
19414;SDS011;9843;48.882;12.592;2023-04-24T04:06:33;5.00;;;4.60;;
19414;SDS011;9843;48.882;12.592;2023-04-24T04:09:01;4.87;;;4.43;;
19414;SDS011;9843;48.882;12.592;2023-04-24T04:11:29;6.50;;;5.20;;
19414;SDS011;9843;48.882;12.592;2023-04-24T04:13:56;6.23;;;4.70;;
19414;SDS011;9843;48.882;12.592;2023-04-24T04:16:24;5.77;;;5.20;;
19414;SDS011;9843;48.882;12.592;2023-04-24T04:18:51;5.73;;;5.33;;
19414;SDS011;9843;48.882;12.592;2023-04-24T04:21:18;4.83;;;4.50;;
19414;SDS011;9843;48.882;12.592;2023-04-24T04:23:45;6.43;;;4.70;;
19414;SDS011;9843;48.882;12.592;2023-04-24T04:26:13;6.47;;;4.97;;
19414;SDS011;9843;48.882;12.592;2023-04-24T04:28:40;5.67;;;4.70;;
19414;SDS011;9843;48.882;12.592;2023-04-24T04:31:07;8.17;;;5.23;;
19414;SDS011;9843;48.882;12.592;2023-04-24T04:33:35;5.47;;;5.00;;
19414;SDS011;9843;48.882;12.592;2023-04-24T04:36:03;8.57;;;5.57;;
19414;SDS011;9843;48.882;12.592;2023-04-24T04:38:30;5.37;;;4.90;;
19414;SDS011;9843;48.882;12.592;2023-04-24T04:40:58;6.73;;;5.70;;
19414;SDS011;9843;48.882;12.592;2023-04-24T04:43:25;5.57;;;5.00;;
19414;SDS011;9843;48.882;12.592;2023-04-24T04:45:52;6.67;;;5.43;;
19414;SDS011;9843;48.882;12.592;2023-04-24T04:48:20;5.47;;;4.30;;
19414;SDS011;9843;48.882;12.592;2023-04-24T04:50:49;7.63;;;4.70;;
19414;SDS011;9843;48.882;12.592;2023-04-24T04:53:16;6.07;;;4.70;;
19414;SDS011;9843;48.882;12.592;2023-04-24T04:55:43;4.93;;;4.43;;
19414;SDS011;9843;48.882;12.592;2023-04-24T04:58:11;6.17;;;5.67;;
19414;SDS011;9843;48.882;12.592;2023-04-24T05:00:38;5.53;;;4.17;;
19414;SDS011;9843;48.882;12.592;2023-04-24T05:03:06;5.53;;;5.03;;
19414;SDS011;9843;48.882;12.592;2023-04-24T05:05:33;4.93;;;4.57;;
19414;SDS011;9843;48.882;12.592;2023-04-24T05:08:02;5.47;;;4.97;;
19414;SDS011;9843;48.882;12.592;2023-04-24T05:10:29;5.47;;;4.40;;
19414;SDS011;9843;48.882;12.592;2023-04-24T05:12:56;6.07;;;5.13;;
19414;SDS011;9843;48.882;12.592;2023-04-24T05:15:23;5.20;;;4.80;;
19414;SDS011;9843;48.882;12.592;2023-04-24T05:17:50;7.37;;;4.83;;
19414;SDS011;9843;48.882;12.592;2023-04-24T05:20:17;5.80;;;5.27;;
19414;SDS011;9843;48.882;12.592;2023-04-24T05:22:44;8.03;;;5.97;;
19414;SDS011;9843;48.882;12.592;2023-04-24T05:25:12;5.67;;;5.17;;
19414;SDS011;9843;48.882;12.592;2023-04-24T05:27:40;6.73;;;4.40;;
19414;SDS011;9843;48.882;12.592;2023-04-24T05:30:07;5.40;;;4.90;;
19414;SDS011;9843;48.882;12.592;2023-04-24T05:32:34;4.30;;;4.00;;
19414;SDS011;9843;48.882;12.592;2023-04-24T05:35:01;4.40;;;4.00;;
19414;SDS011;9843;48.882;12.592;2023-04-24T05:37:28;6.20;;;4.67;;
19414;SDS011;9843;48.882;12.592;2023-04-24T05:39:55;5.37;;;4.97;;
19414;SDS011;9843;48.882;12.592;2023-04-24T05:42:24;6.27;;;4.93;;
19414;SDS011;9843;48.882;12.592;2023-04-24T05:44:51;8.97;;;4.73;;
19414;SDS011;9843;48.882;12.592;2023-04-24T05:47:19;5.67;;;4.03;;
19414;SDS011;9843;48.882;12.592;2023-04-24T05:49:47;5.20;;;3.80;;
19414;SDS011;9843;48.882;12.592;2023-04-24T05:52:14;6.30;;;3.80;;
19414;SDS011;9843;48.882;12.592;2023-04-24T05:54:41;4.40;;;4.00;;
19414;SDS011;9843;48.882;12.592;2023-04-24T05:57:08;4.13;;;3.83;;
19414;SDS011;9843;48.882;12.592;2023-04-24T05:59:37;5.77;;;3.57;;
19414;SDS011;9843;48.882;12.592;2023-04-24T06:02:04;4.87;;;3.27;;
19414;SDS011;9843;48.882;12.592;2023-04-24T06:04:31;3.97;;;3.50;;
19414;SDS011;9843;48.882;12.592;2023-04-24T06:06:58;5.13;;;3.30;;
19414;SDS011;9843;48.882;12.592;2023-04-24T06:09:25;6.93;;;3.70;;
19414;SDS011;9843;48.882;12.592;2023-04-24T06:11:52;4.77;;;4.37;;
19414;SDS011;9843;48.882;12.592;2023-04-24T06:14:20;4.43;;;4.03;;
19414;SDS011;9843;48.882;12.592;2023-04-24T06:16:48;4.47;;;3.90;;
19414;SDS011;9843;48.882;12.592;2023-04-24T06:19:15;3.87;;;3.50;;
19414;SDS011;9843;48.882;12.592;2023-04-24T06:21:42;4.90;;;3.47;;
19414;SDS011;9843;48.882;12.592;2023-04-24T06:24:10;6.27;;;4.13;;
19414;SDS011;9843;48.882;12.592;2023-04-24T06:26:37;6.20;;;4.00;;
19414;SDS011;9843;48.882;12.592;2023-04-24T06:29:04;3.07;;;2.87;;
19414;SDS011;9843;48.882;12.592;2023-04-24T06:31:32;4.90;;;3.27;;
19414;SDS011;9843;48.882;12.592;2023-04-24T06:34:03;15.03;;;4.83;;
19414;SDS011;9843;48.882;12.592;2023-04-24T06:36:30;3.33;;;2.87;;
19414;SDS011;9843;48.882;12.592;2023-04-24T06:38:59;6.40;;;3.37;;
19414;SDS011;9843;48.882;12.592;2023-04-24T06:41:26;5.33;;;3.33;;
19414;SDS011;9843;48.882;12.592;2023-04-24T06:43:53;2.40;;;2.20;;
19414;SDS011;9843;48.882;12.592;2023-04-24T06:46:21;3.43;;;3.13;;
19414;SDS011;9843;48.882;12.592;2023-04-24T06:48:50;3.00;;;2.80;;
19414;SDS011;9843;48.882;12.592;2023-04-24T06:51:21;2.50;;;2.40;;
19414;SDS011;9843;48.882;12.592;2023-04-24T06:53:48;3.27;;;2.83;;
19414;SDS011;9843;48.882;12.592;2023-04-24T06:56:16;3.67;;;2.83;;
19414;SDS011;9843;48.882;12.592;2023-04-24T06:58:43;3.80;;;3.47;;
19414;SDS011;9843;48.882;12.592;2023-04-24T07:01:10;3.50;;;3.07;;
19414;SDS011;9843;48.882;12.592;2023-04-24T07:03:37;2.93;;;2.70;;
19414;SDS011;9843;48.882;12.592;2023-04-24T07:06:04;2.93;;;2.50;;
19414;SDS011;9843;48.882;12.592;2023-04-24T07:08:33;3.50;;;2.80;;
19414;SDS011;9843;48.882;12.592;2023-04-24T07:11:00;4.80;;;2.97;;
19414;SDS011;9843;48.882;12.592;2023-04-24T07:13:27;3.13;;;2.60;;
19414;SDS011;9843;48.882;12.592;2023-04-24T07:15:54;3.00;;;2.67;;
19414;SDS011;9843;48.882;12.592;2023-04-24T07:18:21;2.63;;;2.40;;
19414;SDS011;9843;48.882;12.592;2023-04-24T07:20:49;4.77;;;2.80;;
19414;SDS011;9843;48.882;12.592;2023-04-24T07:23:16;6.47;;;2.83;;
19414;SDS011;9843;48.882;12.592;2023-04-24T07:25:44;5.30;;;3.10;;
19414;SDS011;9843;48.882;12.592;2023-04-24T07:28:12;6.23;;;3.47;;
19414;SDS011;9843;48.882;12.592;2023-04-24T07:30:39;3.17;;;2.70;;
19414;SDS011;9843;48.882;12.592;2023-04-24T07:33:06;3.07;;;2.77;;
19414;SDS011;9843;48.882;12.592;2023-04-24T07:35:33;2.53;;;2.33;;
19414;SDS011;9843;48.882;12.592;2023-04-24T07:38:01;3.77;;;2.77;;
19414;SDS011;9843;48.882;12.592;2023-04-24T07:40:28;3.63;;;3.10;;
19414;SDS011;9843;48.882;12.592;2023-04-24T07:42:56;2.60;;;2.40;;
19414;SDS011;9843;48.882;12.592;2023-04-24T07:45:23;2.70;;;2.50;;
19414;SDS011;9843;48.882;12.592;2023-04-24T07:47:51;5.87;;;2.53;;
19414;SDS011;9843;48.882;12.592;2023-04-24T07:50:18;4.47;;;3.00;;
19414;SDS011;9843;48.882;12.592;2023-04-24T07:52:45;3.50;;;2.53;;
19414;SDS011;9843;48.882;12.592;2023-04-24T07:55:12;4.10;;;2.33;;
19414;SDS011;9843;48.882;12.592;2023-04-24T07:57:39;4.57;;;2.73;;
19414;SDS011;9843;48.882;12.592;2023-04-24T08:00:08;6.07;;;2.87;;
19414;SDS011;9843;48.882;12.592;2023-04-24T08:02:36;7.17;;;2.83;;
19414;SDS011;9843;48.882;12.592;2023-04-24T08:05:03;3.07;;;2.80;;
19414;SDS011;9843;48.882;12.592;2023-04-24T08:07:30;3.30;;;3.10;;
19414;SDS011;9843;48.882;12.592;2023-04-24T08:09:58;2.50;;;2.30;;
19414;SDS011;9843;48.882;12.592;2023-04-24T08:12:25;3.00;;;2.20;;
19414;SDS011;9843;48.882;12.592;2023-04-24T08:14:52;2.97;;;2.37;;
19414;SDS011;9843;48.882;12.592;2023-04-24T08:17:20;4.50;;;2.23;;
19414;SDS011;9843;48.882;12.592;2023-04-24T08:19:47;2.47;;;2.07;;
19414;SDS011;9843;48.882;12.592;2023-04-24T08:22:16;4.77;;;2.67;;
19414;SDS011;9843;48.882;12.592;2023-04-24T08:24:43;3.20;;;2.30;;
19414;SDS011;9843;48.882;12.592;2023-04-24T08:27:10;8.50;;;2.63;;
19414;SDS011;9843;48.882;12.592;2023-04-24T08:29:37;2.03;;;1.80;;
19414;SDS011;9843;48.882;12.592;2023-04-24T08:32:04;2.57;;;2.40;;
19414;SDS011;9843;48.882;12.592;2023-04-24T08:34:32;3.93;;;2.30;;
19414;SDS011;9843;48.882;12.592;2023-04-24T08:36:59;3.10;;;2.53;;
19414;SDS011;9843;48.882;12.592;2023-04-24T08:39:26;2.50;;;2.40;;
19414;SDS011;9843;48.882;12.592;2023-04-24T08:41:54;3.40;;;3.20;;
19414;SDS011;9843;48.882;12.592;2023-04-24T08:44:21;2.40;;;2.30;;
19414;SDS011;9843;48.882;12.592;2023-04-24T08:46:48;1.97;;;1.87;;
19414;SDS011;9843;48.882;12.592;2023-04-24T08:49:17;3.67;;;2.40;;
19414;SDS011;9843;48.882;12.592;2023-04-24T08:51:45;3.37;;;2.20;;
19414;SDS011;9843;48.882;12.592;2023-04-24T08:54:13;2.40;;;2.30;;
19414;SDS011;9843;48.882;12.592;2023-04-24T08:56:40;2.80;;;2.60;;
19414;SDS011;9843;48.882;12.592;2023-04-24T08:59:10;3.13;;;2.60;;
19414;SDS011;9843;48.882;12.592;2023-04-24T09:01:37;3.03;;;2.83;;
19414;SDS011;9843;48.882;12.592;2023-04-24T09:04:05;3.13;;;2.93;;
19414;SDS011;9843;48.882;12.592;2023-04-24T09:06:34;4.63;;;3.10;;
19414;SDS011;9843;48.882;12.592;2023-04-24T09:09:03;3.10;;;2.90;;
19414;SDS011;9843;48.882;12.592;2023-04-24T09:11:30;6.93;;;3.40;;
19414;SDS011;9843;48.882;12.592;2023-04-24T09:13:58;2.97;;;2.70;;
19414;SDS011;9843;48.882;12.592;2023-04-24T09:16:25;2.63;;;2.43;;
19414;SDS011;9843;48.882;12.592;2023-04-24T09:18:53;2.00;;;1.90;;
19414;SDS011;9843;48.882;12.592;2023-04-24T09:21:20;2.03;;;1.90;;
19414;SDS011;9843;48.882;12.592;2023-04-24T09:23:57;1.80;;;1.70;;
19414;SDS011;9843;48.882;12.592;2023-04-24T09:26:25;3.57;;;2.77;;
19414;SDS011;9843;48.882;12.592;2023-04-24T09:28:53;4.40;;;2.83;;
19414;SDS011;9843;48.882;12.592;2023-04-24T09:31:20;6.80;;;1.73;;
19414;SDS011;9843;48.882;12.592;2023-04-24T09:33:53;3.03;;;1.63;;
19414;SDS011;9843;48.882;12.592;2023-04-24T09:36:24;2.40;;;1.30;;
19414;SDS011;9843;48.882;12.592;2023-04-24T09:38:53;3.57;;;2.07;;
19414;SDS011;9843;48.882;12.592;2023-04-24T09:41:20;1.90;;;1.80;;
19414;SDS011;9843;48.882;12.592;2023-04-24T09:43:49;3.50;;;1.70;;
19414;SDS011;9843;48.882;12.592;2023-04-24T09:46:16;3.77;;;2.83;;
19414;SDS011;9843;48.882;12.592;2023-04-24T09:48:46;3.70;;;1.77;;
19414;SDS011;9843;48.882;12.592;2023-04-24T09:51:13;1.93;;;1.83;;
19414;SDS011;9843;48.882;12.592;2023-04-24T09:53:44;2.90;;;2.10;;
19414;SDS011;9843;48.882;12.592;2023-04-24T09:56:11;2.70;;;2.50;;
19414;SDS011;9843;48.882;12.592;2023-04-24T09:58:39;2.23;;;2.13;;
19414;SDS011;9843;48.882;12.592;2023-04-24T10:01:07;2.73;;;2.07;;
19414;SDS011;9843;48.882;12.592;2023-04-24T10:03:34;2.60;;;2.27;;
19414;SDS011;9843;48.882;12.592;2023-04-24T10:06:02;4.00;;;2.80;;
19414;SDS011;9843;48.882;12.592;2023-04-24T10:08:33;3.40;;;2.00;;
19414;SDS011;9843;48.882;12.592;2023-04-24T10:11:01;2.37;;;2.27;;
19414;SDS011;9843;48.882;12.592;2023-04-24T10:13:28;2.50;;;2.30;;
19414;SDS011;9843;48.882;12.592;2023-04-24T10:15:55;5.87;;;2.57;;
19414;SDS011;9843;48.882;12.592;2023-04-24T10:18:24;3.40;;;2.07;;
19414;SDS011;9843;48.882;12.592;2023-04-24T10:20:51;2.40;;;1.87;;
19414;SDS011;9843;48.882;12.592;2023-04-24T10:23:21;1.50;;;1.33;;
19414;SDS011;9843;48.882;12.592;2023-04-24T10:25:48;2.40;;;1.27;;
19414;SDS011;9843;48.882;12.592;2023-04-24T10:28:15;0.90;;;0.90;;
19414;SDS011;9843;48.882;12.592;2023-04-24T10:30:44;1.03;;;0.93;;
19414;SDS011;9843;48.882;12.592;2023-04-24T10:33:12;1.47;;;1.10;;
19414;SDS011;9843;48.882;12.592;2023-04-24T10:35:41;1.87;;;1.00;;
19414;SDS011;9843;48.882;12.592;2023-04-24T10:38:09;1.53;;;1.13;;
19414;SDS011;9843;48.882;12.592;2023-04-24T10:40:37;0.93;;;0.93;;
19414;SDS011;9843;48.882;12.592;2023-04-24T10:43:05;3.97;;;1.07;;
19414;SDS011;9843;48.882;12.592;2023-04-24T10:45:33;3.10;;;0.70;;
19414;SDS011;9843;48.882;12.592;2023-04-24T10:48:01;0.90;;;0.70;;
19414;SDS011;9843;48.882;12.592;2023-04-24T10:50:28;2.00;;;1.30;;
19414;SDS011;9843;48.882;12.592;2023-04-24T10:53:06;2.10;;;1.20;;
19414;SDS011;9843;48.882;12.592;2023-04-24T10:55:41;1.47;;;1.00;;
19414;SDS011;9843;48.882;12.592;2023-04-24T10:58:08;1.57;;;1.20;;
19414;SDS011;9843;48.882;12.592;2023-04-24T11:00:36;1.47;;;1.10;;
19414;SDS011;9843;48.882;12.592;2023-04-24T11:03:04;2.90;;;1.23;;
19414;SDS011;9843;48.882;12.592;2023-04-24T11:08:22;2.77;;;1.60;;
19414;SDS011;9843;48.882;12.592;2023-04-24T11:10:54;1.70;;;1.27;;
19414;SDS011;9843;48.882;12.592;2023-04-24T11:13:22;2.07;;;1.07;;
19414;SDS011;9843;48.882;12.592;2023-04-24T11:18:36;1.83;;;0.97;;
19414;SDS011;9843;48.882;12.592;2023-04-24T11:21:09;1.20;;;1.10;;
19414;SDS011;9843;48.882;12.592;2023-04-24T11:23:38;1.33;;;1.03;;
19414;SDS011;9843;48.882;12.592;2023-04-24T11:26:12;1.00;;;0.90;;
19414;SDS011;9843;48.882;12.592;2023-04-24T11:28:45;1.37;;;1.10;;
19414;SDS011;9843;48.882;12.592;2023-04-24T11:34:05;1.30;;;1.00;;
19414;SDS011;9843;48.882;12.592;2023-04-24T11:36:32;2.87;;;1.20;;
19414;SDS011;9843;48.882;12.592;2023-04-24T11:39:00;8.63;;;2.27;;
19414;SDS011;9843;48.882;12.592;2023-04-24T11:41:27;1.00;;;1.00;;
19414;SDS011;9843;48.882;12.592;2023-04-24T11:43:55;1.63;;;1.20;;
19414;SDS011;9843;48.882;12.592;2023-04-24T11:46:23;1.20;;;1.10;;
19414;SDS011;9843;48.882;12.592;2023-04-24T11:48:50;1.20;;;0.77;;
19414;SDS011;9843;48.882;12.592;2023-04-24T11:51:17;1.43;;;0.80;;
19414;SDS011;9843;48.882;12.592;2023-04-24T11:53:44;0.87;;;0.50;;
19414;SDS011;9843;48.882;12.592;2023-04-24T11:56:12;2.23;;;0.90;;
19414;SDS011;9843;48.882;12.592;2023-04-24T11:58:44;1.57;;;0.77;;
19414;SDS011;9843;48.882;12.592;2023-04-24T12:01:11;1.50;;;0.80;;
19414;SDS011;9843;48.882;12.592;2023-04-24T12:03:38;8.10;;;2.27;;
19414;SDS011;9843;48.882;12.592;2023-04-24T12:06:08;0.80;;;0.80;;
19414;SDS011;9843;48.882;12.592;2023-04-24T12:08:36;1.30;;;1.20;;
19414;SDS011;9843;48.882;12.592;2023-04-24T12:11:04;2.37;;;2.17;;
19414;SDS011;9843;48.882;12.592;2023-04-24T12:13:33;3.73;;;1.53;;
19414;SDS011;9843;48.882;12.592;2023-04-24T12:16:01;1.07;;;0.97;;
19414;SDS011;9843;48.882;12.592;2023-04-24T12:18:28;2.47;;;1.87;;
19414;SDS011;9843;48.882;12.592;2023-04-24T12:20:55;4.63;;;3.77;;
19414;SDS011;9843;48.882;12.592;2023-04-24T12:23:42;2.00;;;1.50;;
19414;SDS011;9843;48.882;12.592;2023-04-24T12:26:09;1.90;;;1.80;;
19414;SDS011;9843;48.882;12.592;2023-04-24T12:28:38;4.70;;;2.40;;
19414;SDS011;9843;48.882;12.592;2023-04-24T12:31:06;2.00;;;1.90;;
19414;SDS011;9843;48.882;12.592;2023-04-24T12:33:34;4.23;;;2.57;;
19414;SDS011;9843;48.882;12.592;2023-04-24T12:36:01;2.97;;;2.67;;
19414;SDS011;9843;48.882;12.592;2023-04-24T12:38:30;2.73;;;2.43;;
19414;SDS011;9843;48.882;12.592;2023-04-24T12:41:05;2.20;;;2.10;;
19414;SDS011;9843;48.882;12.592;2023-04-24T12:43:32;2.40;;;2.30;;
19414;SDS011;9843;48.882;12.592;2023-04-24T12:46:01;2.50;;;2.30;;
19414;SDS011;9843;48.882;12.592;2023-04-24T12:48:28;2.27;;;2.17;;
19414;SDS011;9843;48.882;12.592;2023-04-24T12:50:56;3.13;;;2.33;;
19414;SDS011;9843;48.882;12.592;2023-04-24T12:53:26;2.33;;;2.23;;
19414;SDS011;9843;48.882;12.592;2023-04-24T12:55:54;2.50;;;2.23;;
19414;SDS011;9843;48.882;12.592;2023-04-24T12:58:21;2.30;;;1.60;;
19414;SDS011;9843;48.882;12.592;2023-04-24T13:00:48;3.37;;;1.70;;
19414;SDS011;9843;48.882;12.592;2023-04-24T13:03:16;1.80;;;1.70;;
19414;SDS011;9843;48.882;12.592;2023-04-24T13:05:43;3.33;;;3.13;;
19414;SDS011;9843;48.882;12.592;2023-04-24T13:08:10;1.47;;;1.37;;
19414;SDS011;9843;48.882;12.592;2023-04-24T13:10:38;4.37;;;1.83;;
19414;SDS011;9843;48.882;12.592;2023-04-24T13:13:06;1.50;;;1.40;;
19414;SDS011;9843;48.882;12.592;2023-04-24T13:15:33;2.77;;;1.40;;
19414;SDS011;9843;48.882;12.592;2023-04-24T13:18:00;1.47;;;1.37;;
19414;SDS011;9843;48.882;12.592;2023-04-24T13:20:28;2.23;;;1.57;;
19414;SDS011;9843;48.882;12.592;2023-04-24T13:22:55;1.67;;;1.57;;
19414;SDS011;9843;48.882;12.592;2023-04-24T13:25:22;1.83;;;1.70;;
19414;SDS011;9843;48.882;12.592;2023-04-24T13:27:50;2.20;;;2.00;;
19414;SDS011;9843;48.882;12.592;2023-04-24T13:30:17;3.30;;;1.57;;
19414;SDS011;9843;48.882;12.592;2023-04-24T13:32:44;1.63;;;1.53;;
19414;SDS011;9843;48.882;12.592;2023-04-24T13:35:11;3.87;;;2.50;;
19414;SDS011;9843;48.882;12.592;2023-04-24T13:37:39;5.27;;;2.90;;
19414;SDS011;9843;48.882;12.592;2023-04-24T13:40:07;4.10;;;3.40;;
19414;SDS011;9843;48.882;12.592;2023-04-24T13:42:34;4.37;;;3.53;;
19414;SDS011;9843;48.882;12.592;2023-04-24T13:45:01;4.03;;;2.83;;
19414;SDS011;9843;48.882;12.592;2023-04-24T13:47:29;5.40;;;2.00;;
19414;SDS011;9843;48.882;12.592;2023-04-24T13:49:56;2.33;;;2.13;;
19414;SDS011;9843;48.882;12.592;2023-04-24T13:52:23;2.63;;;2.27;;
19414;SDS011;9843;48.882;12.592;2023-04-24T13:54:51;2.30;;;2.10;;
19414;SDS011;9843;48.882;12.592;2023-04-24T13:57:18;2.50;;;2.30;;
19414;SDS011;9843;48.882;12.592;2023-04-24T13:59:46;3.43;;;2.83;;
19414;SDS011;9843;48.882;12.592;2023-04-24T14:02:13;2.30;;;2.20;;
19414;SDS011;9843;48.882;12.592;2023-04-24T14:04:40;5.40;;;2.73;;
19414;SDS011;9843;48.882;12.592;2023-04-24T14:07:07;1.80;;;1.70;;
19414;SDS011;9843;48.882;12.592;2023-04-24T14:09:34;1.90;;;1.80;;
19414;SDS011;9843;48.882;12.592;2023-04-24T14:12:02;2.70;;;2.47;;
19414;SDS011;9843;48.882;12.592;2023-04-24T14:14:29;2.30;;;2.20;;
19414;SDS011;9843;48.882;12.592;2023-04-24T14:16:56;2.70;;;2.23;;
19414;SDS011;9843;48.882;12.592;2023-04-24T14:19:24;5.23;;;3.47;;
19414;SDS011;9843;48.882;12.592;2023-04-24T14:21:51;2.50;;;2.30;;
19414;SDS011;9843;48.882;12.592;2023-04-24T14:24:18;3.80;;;1.67;;
19414;SDS011;9843;48.882;12.592;2023-04-24T14:26:45;6.53;;;1.57;;
19414;SDS011;9843;48.882;12.592;2023-04-24T14:29:14;4.73;;;1.73;;
19414;SDS011;9843;48.882;12.592;2023-04-24T14:31:41;2.30;;;2.07;;
19414;SDS011;9843;48.882;12.592;2023-04-24T14:34:09;1.70;;;1.53;;
19414;SDS011;9843;48.882;12.592;2023-04-24T14:36:36;1.93;;;1.83;;
19414;SDS011;9843;48.882;12.592;2023-04-24T14:39:03;3.17;;;2.73;;
19414;SDS011;9843;48.882;12.592;2023-04-24T14:41:31;8.53;;;2.00;;
19414;SDS011;9843;48.882;12.592;2023-04-24T14:44:00;3.67;;;2.23;;
19414;SDS011;9843;48.882;12.592;2023-04-24T14:46:28;4.50;;;2.30;;
19414;SDS011;9843;48.882;12.592;2023-04-24T14:48:56;1.47;;;1.37;;
19414;SDS011;9843;48.882;12.592;2023-04-24T14:51:23;1.73;;;1.63;;
19414;SDS011;9843;48.882;12.592;2023-04-24T14:53:50;7.97;;;2.60;;
19414;SDS011;9843;48.882;12.592;2023-04-24T14:56:17;4.40;;;2.27;;
19414;SDS011;9843;48.882;12.592;2023-04-24T14:58:44;1.90;;;1.80;;